sensor_id;sensor_type;location;lat;lon;timestamp;P1;durP1;ratioP1;P2;durP2;ratioP2
71610;SDS011;59459;51.172;6.682;2023-05-08T00:01:15;12.37;;;7.03;;
71610;SDS011;59459;51.172;6.682;2023-05-08T00:03:40;12.97;;;6.90;;
71610;SDS011;59459;51.172;6.682;2023-05-08T00:06:05;15.83;;;8.23;;
71610;SDS011;59459;51.172;6.682;2023-05-08T00:08:31;12.60;;;7.13;;
71610;SDS011;59459;51.172;6.682;2023-05-08T00:10:56;13.03;;;7.70;;
71610;SDS011;59459;51.172;6.682;2023-05-08T00:13:21;15.43;;;7.90;;
71610;SDS011;59459;51.172;6.682;2023-05-08T00:15:47;15.17;;;8.23;;
71610;SDS011;59459;51.172;6.682;2023-05-08T00:18:12;14.13;;;7.68;;
71610;SDS011;59459;51.172;6.682;2023-05-08T00:20:37;13.70;;;7.53;;
71610;SDS011;59459;51.172;6.682;2023-05-08T00:23:03;12.83;;;7.90;;
71610;SDS011;59459;51.172;6.682;2023-05-08T00:25:28;14.47;;;7.87;;
71610;SDS011;59459;51.172;6.682;2023-05-08T00:27:55;13.32;;;7.78;;
71610;SDS011;59459;51.172;6.682;2023-05-08T00:30:21;15.03;;;7.97;;
71610;SDS011;59459;51.172;6.682;2023-05-08T00:32:46;14.40;;;8.02;;
71610;SDS011;59459;51.172;6.682;2023-05-08T00:35:11;12.97;;;7.83;;
71610;SDS011;59459;51.172;6.682;2023-05-08T00:37:36;13.43;;;7.77;;
71610;SDS011;59459;51.172;6.682;2023-05-08T00:40:04;11.63;;;7.07;;
71610;SDS011;59459;51.172;6.682;2023-05-08T00:42:30;13.07;;;7.20;;
71610;SDS011;59459;51.172;6.682;2023-05-08T00:44:55;15.27;;;7.40;;
71610;SDS011;59459;51.172;6.682;2023-05-08T00:47:20;13.33;;;7.27;;
71610;SDS011;59459;51.172;6.682;2023-05-08T00:49:46;12.95;;;8.05;;
71610;SDS011;59459;51.172;6.682;2023-05-08T00:52:12;14.57;;;8.30;;
71610;SDS011;59459;51.172;6.682;2023-05-08T00:54:37;13.27;;;7.07;;
71610;SDS011;59459;51.172;6.682;2023-05-08T00:57:05;16.88;;;7.95;;
71610;SDS011;59459;51.172;6.682;2023-05-08T00:59:30;14.95;;;8.60;;
71610;SDS011;59459;51.172;6.682;2023-05-08T01:01:56;15.27;;;8.57;;
71610;SDS011;59459;51.172;6.682;2023-05-08T01:04:23;14.87;;;8.30;;
71610;SDS011;59459;51.172;6.682;2023-05-08T01:06:48;17.15;;;8.15;;
71610;SDS011;59459;51.172;6.682;2023-05-08T01:09:14;14.00;;;7.73;;
71610;SDS011;59459;51.172;6.682;2023-05-08T01:22:14;14.23;;;8.05;;
71610;SDS011;59459;51.172;6.682;2023-05-08T01:29:58;15.87;;;8.33;;
71610;SDS011;59459;51.172;6.682;2023-05-08T01:32:38;15.77;;;9.20;;
71610;SDS011;59459;51.172;6.682;2023-05-08T01:37:34;15.47;;;8.47;;
71610;SDS011;59459;51.172;6.682;2023-05-08T01:40:01;14.55;;;8.20;;
71610;SDS011;59459;51.172;6.682;2023-05-08T01:42:45;18.02;;;8.75;;
71610;SDS011;59459;51.172;6.682;2023-05-08T01:47:43;16.38;;;8.85;;
71610;SDS011;59459;51.172;6.682;2023-05-08T01:52:36;19.13;;;9.53;;
71610;SDS011;59459;51.172;6.682;2023-05-08T01:55:07;15.05;;;8.40;;
71610;SDS011;59459;51.172;6.682;2023-05-08T01:57:34;15.05;;;8.27;;
71610;SDS011;59459;51.172;6.682;2023-05-08T02:00:01;18.10;;;9.25;;
71610;SDS011;59459;51.172;6.682;2023-05-08T02:02:27;16.50;;;8.47;;
71610;SDS011;59459;51.172;6.682;2023-05-08T02:04:53;16.15;;;7.50;;
71610;SDS011;59459;51.172;6.682;2023-05-08T02:07:20;15.37;;;8.17;;
71610;SDS011;59459;51.172;6.682;2023-05-08T02:09:46;15.17;;;7.70;;
71610;SDS011;59459;51.172;6.682;2023-05-08T02:12:12;16.60;;;7.85;;
71610;SDS011;59459;51.172;6.682;2023-05-08T02:14:38;16.70;;;9.50;;
71610;SDS011;59459;51.172;6.682;2023-05-08T02:17:04;16.90;;;8.03;;
71610;SDS011;59459;51.172;6.682;2023-05-08T02:19:30;14.75;;;7.55;;
71610;SDS011;59459;51.172;6.682;2023-05-08T02:21:56;16.77;;;7.95;;
71610;SDS011;59459;51.172;6.682;2023-05-08T02:24:23;14.18;;;8.00;;
71610;SDS011;59459;51.172;6.682;2023-05-08T02:26:48;14.57;;;7.43;;
71610;SDS011;59459;51.172;6.682;2023-05-08T02:29:14;14.93;;;7.70;;
71610;SDS011;59459;51.172;6.682;2023-05-08T02:31:39;15.10;;;8.10;;
71610;SDS011;59459;51.172;6.682;2023-05-08T02:34:05;16.13;;;7.13;;
71610;SDS011;59459;51.172;6.682;2023-05-08T02:36:33;15.75;;;7.85;;
71610;SDS011;59459;51.172;6.682;2023-05-08T02:38:58;14.90;;;7.85;;
71610;SDS011;59459;51.172;6.682;2023-05-08T02:41:24;15.13;;;7.07;;
71610;SDS011;59459;51.172;6.682;2023-05-08T02:43:51;16.67;;;8.30;;
71610;SDS011;59459;51.172;6.682;2023-05-08T02:46:17;14.83;;;7.23;;
71610;SDS011;59459;51.172;6.682;2023-05-08T02:53:44;15.25;;;8.07;;
71610;SDS011;59459;51.172;6.682;2023-05-08T02:56:20;15.83;;;7.47;;
71610;SDS011;59459;51.172;6.682;2023-05-08T02:58:51;12.40;;;6.78;;
71610;SDS011;59459;51.172;6.682;2023-05-08T03:01:24;16.48;;;8.68;;
71610;SDS011;59459;51.172;6.682;2023-05-08T03:03:58;15.07;;;7.95;;
71610;SDS011;59459;51.172;6.682;2023-05-08T03:06:25;13.13;;;7.68;;
71610;SDS011;59459;51.172;6.682;2023-05-08T03:08:51;15.10;;;7.70;;
71610;SDS011;59459;51.172;6.682;2023-05-08T03:11:18;15.50;;;8.60;;
71610;SDS011;59459;51.172;6.682;2023-05-08T03:13:45;15.02;;;7.35;;
71610;SDS011;59459;51.172;6.682;2023-05-08T03:16:20;15.10;;;7.57;;
71610;SDS011;59459;51.172;6.682;2023-05-08T03:18:57;14.52;;;6.95;;
71610;SDS011;59459;51.172;6.682;2023-05-08T03:21:25;13.32;;;6.57;;
71610;SDS011;59459;51.172;6.682;2023-05-08T03:23:52;13.38;;;6.20;;
71610;SDS011;59459;51.172;6.682;2023-05-08T03:26:18;11.33;;;5.97;;
71610;SDS011;59459;51.172;6.682;2023-05-08T03:28:45;11.93;;;5.57;;
71610;SDS011;59459;51.172;6.682;2023-05-08T03:31:11;10.68;;;5.65;;
71610;SDS011;59459;51.172;6.682;2023-05-08T03:33:38;12.13;;;5.25;;
71610;SDS011;59459;51.172;6.682;2023-05-08T03:36:06;10.83;;;5.23;;
71610;SDS011;59459;51.172;6.682;2023-05-08T03:38:31;10.77;;;5.10;;
71610;SDS011;59459;51.172;6.682;2023-05-08T03:40:58;11.27;;;5.43;;
71610;SDS011;59459;51.172;6.682;2023-05-08T03:43:23;11.15;;;5.80;;
71610;SDS011;59459;51.172;6.682;2023-05-08T03:45:48;10.30;;;5.20;;
71610;SDS011;59459;51.172;6.682;2023-05-08T03:48:15;9.77;;;4.70;;
71610;SDS011;59459;51.172;6.682;2023-05-08T03:50:40;10.27;;;5.00;;
71610;SDS011;59459;51.172;6.682;2023-05-08T03:53:05;9.73;;;5.47;;
71610;SDS011;59459;51.172;6.682;2023-05-08T03:55:34;8.75;;;4.63;;
71610;SDS011;59459;51.172;6.682;2023-05-08T04:05:59;10.07;;;4.45;;
71610;SDS011;59459;51.172;6.682;2023-05-08T04:08:30;10.30;;;4.97;;
71610;SDS011;59459;51.172;6.682;2023-05-08T04:11:34;10.02;;;4.63;;
71610;SDS011;59459;51.172;6.682;2023-05-08T04:13:49;9.25;;;4.70;;
71610;SDS011;59459;51.172;6.682;2023-05-08T04:16:21;9.67;;;4.60;;
71610;SDS011;59459;51.172;6.682;2023-05-08T04:18:49;9.93;;;4.25;;
71610;SDS011;59459;51.172;6.682;2023-05-08T04:21:17;9.23;;;4.85;;
71610;SDS011;59459;51.172;6.682;2023-05-08T04:23:43;10.35;;;4.72;;
71610;SDS011;59459;51.172;6.682;2023-05-08T04:26:08;9.20;;;4.87;;
71610;SDS011;59459;51.172;6.682;2023-05-08T04:28:34;12.05;;;5.47;;
71610;SDS011;59459;51.172;6.682;2023-05-08T04:31:00;10.67;;;4.93;;
71610;SDS011;59459;51.172;6.682;2023-05-08T04:33:26;9.23;;;4.40;;
71610;SDS011;59459;51.172;6.682;2023-05-08T04:35:52;11.02;;;4.57;;
71610;SDS011;59459;51.172;6.682;2023-05-08T04:38:17;10.13;;;4.50;;
71610;SDS011;59459;51.172;6.682;2023-05-08T04:40:43;11.03;;;5.33;;
71610;SDS011;59459;51.172;6.682;2023-05-08T04:43:08;10.50;;;5.03;;
71610;SDS011;59459;51.172;6.682;2023-05-08T04:45:33;11.20;;;4.53;;
71610;SDS011;59459;51.172;6.682;2023-05-08T04:47:58;10.50;;;4.47;;
71610;SDS011;59459;51.172;6.682;2023-05-08T04:50:23;10.30;;;5.00;;
71610;SDS011;59459;51.172;6.682;2023-05-08T04:52:49;14.57;;;5.23;;
71610;SDS011;59459;51.172;6.682;2023-05-08T04:55:14;9.50;;;4.77;;
71610;SDS011;59459;51.172;6.682;2023-05-08T04:57:39;10.97;;;5.50;;
71610;SDS011;59459;51.172;6.682;2023-05-08T05:00:05;10.53;;;5.47;;
71610;SDS011;59459;51.172;6.682;2023-05-08T05:02:30;10.83;;;5.20;;
71610;SDS011;59459;51.172;6.682;2023-05-08T05:04:55;11.30;;;5.00;;
71610;SDS011;59459;51.172;6.682;2023-05-08T05:07:23;12.60;;;5.57;;
71610;SDS011;59459;51.172;6.682;2023-05-08T05:09:48;11.05;;;5.40;;
71610;SDS011;59459;51.172;6.682;2023-05-08T05:12:13;11.03;;;5.20;;
71610;SDS011;59459;51.172;6.682;2023-05-08T05:14:39;11.33;;;5.10;;
71610;SDS011;59459;51.172;6.682;2023-05-08T05:17:04;10.60;;;5.43;;
71610;SDS011;59459;51.172;6.682;2023-05-08T05:19:30;10.47;;;5.37;;
71610;SDS011;59459;51.172;6.682;2023-05-08T05:21:55;10.77;;;4.57;;
71610;SDS011;59459;51.172;6.682;2023-05-08T05:24:20;11.97;;;5.70;;
71610;SDS011;59459;51.172;6.682;2023-05-08T05:26:46;12.10;;;5.73;;
71610;SDS011;59459;51.172;6.682;2023-05-08T05:29:11;11.10;;;5.60;;
71610;SDS011;59459;51.172;6.682;2023-05-08T05:31:37;10.05;;;5.10;;
71610;SDS011;59459;51.172;6.682;2023-05-08T05:34:02;9.37;;;4.27;;
71610;SDS011;59459;51.172;6.682;2023-05-08T05:36:27;11.67;;;5.30;;
71610;SDS011;59459;51.172;6.682;2023-05-08T05:38:53;10.63;;;5.03;;
71610;SDS011;59459;51.172;6.682;2023-05-08T05:41:18;12.10;;;5.87;;
71610;SDS011;59459;51.172;6.682;2023-05-08T05:43:43;11.37;;;5.90;;
71610;SDS011;59459;51.172;6.682;2023-05-08T05:46:09;11.33;;;5.40;;
71610;SDS011;59459;51.172;6.682;2023-05-08T05:48:35;11.40;;;5.70;;
71610;SDS011;59459;51.172;6.682;2023-05-08T05:51:00;13.50;;;6.00;;
71610;SDS011;59459;51.172;6.682;2023-05-08T05:53:26;12.35;;;5.53;;
71610;SDS011;59459;51.172;6.682;2023-05-08T05:55:51;11.03;;;5.67;;
71610;SDS011;59459;51.172;6.682;2023-05-08T05:58:17;12.63;;;6.27;;
71610;SDS011;59459;51.172;6.682;2023-05-08T06:00:42;11.30;;;5.57;;
71610;SDS011;59459;51.172;6.682;2023-05-08T06:03:07;12.00;;;6.00;;
71610;SDS011;59459;51.172;6.682;2023-05-08T06:05:32;11.43;;;6.20;;
71610;SDS011;59459;51.172;6.682;2023-05-08T06:07:58;12.10;;;6.10;;
71610;SDS011;59459;51.172;6.682;2023-05-08T06:10:23;12.80;;;6.20;;
71610;SDS011;59459;51.172;6.682;2023-05-08T06:12:48;12.47;;;6.10;;
71610;SDS011;59459;51.172;6.682;2023-05-08T06:15:13;12.17;;;6.07;;
71610;SDS011;59459;51.172;6.682;2023-05-08T06:17:39;12.77;;;6.80;;
71610;SDS011;59459;51.172;6.682;2023-05-08T06:20:04;13.52;;;6.30;;
71610;SDS011;59459;51.172;6.682;2023-05-08T06:22:30;13.10;;;6.20;;
71610;SDS011;59459;51.172;6.682;2023-05-08T06:24:55;12.43;;;6.67;;
71610;SDS011;59459;51.172;6.682;2023-05-08T06:27:21;13.40;;;6.57;;
71610;SDS011;59459;51.172;6.682;2023-05-08T06:29:47;12.70;;;6.30;;
71610;SDS011;59459;51.172;6.682;2023-05-08T06:32:14;15.40;;;6.88;;
71610;SDS011;59459;51.172;6.682;2023-05-08T06:34:40;14.30;;;6.27;;
71610;SDS011;59459;51.172;6.682;2023-05-08T06:37:05;14.20;;;7.37;;
71610;SDS011;59459;51.172;6.682;2023-05-08T06:39:30;14.95;;;7.22;;
71610;SDS011;59459;51.172;6.682;2023-05-08T06:41:55;12.10;;;5.60;;
71610;SDS011;59459;51.172;6.682;2023-05-08T06:44:21;12.37;;;6.53;;
71610;SDS011;59459;51.172;6.682;2023-05-08T06:46:46;13.17;;;7.20;;
71610;SDS011;59459;51.172;6.682;2023-05-08T06:49:11;10.57;;;5.10;;
71610;SDS011;59459;51.172;6.682;2023-05-08T06:51:36;13.50;;;6.67;;
71610;SDS011;59459;51.172;6.682;2023-05-08T06:54:03;12.60;;;6.38;;
71610;SDS011;59459;51.172;6.682;2023-05-08T06:56:31;11.77;;;6.27;;
71610;SDS011;59459;51.172;6.682;2023-05-08T06:58:57;11.23;;;6.20;;
71610;SDS011;59459;51.172;6.682;2023-05-08T07:01:22;13.70;;;6.40;;
71610;SDS011;59459;51.172;6.682;2023-05-08T07:03:47;14.85;;;6.95;;
71610;SDS011;59459;51.172;6.682;2023-05-08T07:06:13;14.20;;;6.33;;
71610;SDS011;59459;51.172;6.682;2023-05-08T07:08:38;13.93;;;7.00;;
71610;SDS011;59459;51.172;6.682;2023-05-08T07:11:04;11.93;;;6.40;;
71610;SDS011;59459;51.172;6.682;2023-05-08T07:13:29;13.05;;;6.45;;
71610;SDS011;59459;51.172;6.682;2023-05-08T07:15:54;13.30;;;6.73;;
71610;SDS011;59459;51.172;6.682;2023-05-08T07:18:20;13.47;;;6.93;;
71610;SDS011;59459;51.172;6.682;2023-05-08T07:20:45;11.60;;;6.80;;
71610;SDS011;59459;51.172;6.682;2023-05-08T07:23:10;11.10;;;6.37;;
71610;SDS011;59459;51.172;6.682;2023-05-08T07:25:38;13.90;;;6.88;;
71610;SDS011;59459;51.172;6.682;2023-05-08T07:28:03;14.07;;;7.40;;
71610;SDS011;59459;51.172;6.682;2023-05-08T07:30:29;14.17;;;7.17;;
71610;SDS011;59459;51.172;6.682;2023-05-08T07:32:54;12.10;;;6.25;;
71610;SDS011;59459;51.172;6.682;2023-05-08T07:35:19;11.33;;;6.70;;
71610;SDS011;59459;51.172;6.682;2023-05-08T07:37:45;12.93;;;6.83;;
71610;SDS011;59459;51.172;6.682;2023-05-08T07:40:10;14.77;;;7.30;;
71610;SDS011;59459;51.172;6.682;2023-05-08T07:42:39;13.53;;;6.57;;
71610;SDS011;59459;51.172;6.682;2023-05-08T07:45:04;11.73;;;5.40;;
71610;SDS011;59459;51.172;6.682;2023-05-08T07:47:30;12.20;;;6.00;;
71610;SDS011;59459;51.172;6.682;2023-05-08T07:49:55;13.27;;;6.50;;
71610;SDS011;59459;51.172;6.682;2023-05-08T07:52:20;11.40;;;6.33;;
71610;SDS011;59459;51.172;6.682;2023-05-08T07:54:46;17.00;;;8.37;;
71610;SDS011;59459;51.172;6.682;2023-05-08T07:57:11;14.03;;;6.90;;
71610;SDS011;59459;51.172;6.682;2023-05-08T07:59:37;15.57;;;7.40;;
71610;SDS011;59459;51.172;6.682;2023-05-08T08:02:02;16.40;;;8.20;;
71610;SDS011;59459;51.172;6.682;2023-05-08T08:04:27;16.37;;;8.83;;
71610;SDS011;59459;51.172;6.682;2023-05-08T08:06:52;15.10;;;8.13;;
71610;SDS011;59459;51.172;6.682;2023-05-08T08:09:18;16.93;;;8.27;;
71610;SDS011;59459;51.172;6.682;2023-05-08T08:11:43;15.50;;;7.70;;
71610;SDS011;59459;51.172;6.682;2023-05-08T08:14:08;17.13;;;8.50;;
71610;SDS011;59459;51.172;6.682;2023-05-08T08:16:33;19.00;;;8.60;;
71610;SDS011;59459;51.172;6.682;2023-05-08T08:18:58;13.90;;;7.63;;
71610;SDS011;59459;51.172;6.682;2023-05-08T08:21:24;18.08;;;8.52;;
71610;SDS011;59459;51.172;6.682;2023-05-08T08:23:49;15.57;;;8.50;;
71610;SDS011;59459;51.172;6.682;2023-05-08T08:26:14;17.30;;;8.07;;
71610;SDS011;59459;51.172;6.682;2023-05-08T08:28:39;16.10;;;8.13;;
71610;SDS011;59459;51.172;6.682;2023-05-08T08:31:04;14.37;;;7.40;;
71610;SDS011;59459;51.172;6.682;2023-05-08T08:33:30;14.90;;;7.67;;
71610;SDS011;59459;51.172;6.682;2023-05-08T08:35:55;14.63;;;7.80;;
71610;SDS011;59459;51.172;6.682;2023-05-08T08:38:20;14.77;;;8.40;;
71610;SDS011;59459;51.172;6.682;2023-05-08T08:40:45;15.43;;;7.77;;
71610;SDS011;59459;51.172;6.682;2023-05-08T08:43:11;13.50;;;7.03;;
71610;SDS011;59459;51.172;6.682;2023-05-08T08:45:36;16.50;;;7.90;;
71610;SDS011;59459;51.172;6.682;2023-05-08T08:48:02;14.02;;;7.55;;
71610;SDS011;59459;51.172;6.682;2023-05-08T08:50:29;11.80;;;6.77;;
71610;SDS011;59459;51.172;6.682;2023-05-08T08:52:58;13.35;;;6.55;;
71610;SDS011;59459;51.172;6.682;2023-05-08T08:55:24;12.65;;;6.80;;
71610;SDS011;59459;51.172;6.682;2023-05-08T08:58:10;11.80;;;6.40;;
71610;SDS011;59459;51.172;6.682;2023-05-08T09:00:37;12.45;;;7.18;;
71610;SDS011;59459;51.172;6.682;2023-05-08T09:03:06;12.65;;;6.32;;
71610;SDS011;59459;51.172;6.682;2023-05-08T09:05:31;13.20;;;6.77;;
71610;SDS011;59459;51.172;6.682;2023-05-08T09:07:57;11.75;;;6.43;;
71610;SDS011;59459;51.172;6.682;2023-05-08T09:10:23;11.98;;;6.47;;
71610;SDS011;59459;51.172;6.682;2023-05-08T09:12:48;12.10;;;6.30;;
71610;SDS011;59459;51.172;6.682;2023-05-08T09:15:14;11.57;;;6.37;;
71610;SDS011;59459;51.172;6.682;2023-05-08T09:17:39;11.43;;;6.67;;
71610;SDS011;59459;51.172;6.682;2023-05-08T09:20:04;10.67;;;5.70;;
71610;SDS011;59459;51.172;6.682;2023-05-08T09:22:30;11.02;;;6.07;;
71610;SDS011;59459;51.172;6.682;2023-05-08T09:24:57;12.48;;;6.43;;
71610;SDS011;59459;51.172;6.682;2023-05-08T09:27:23;11.35;;;6.65;;
71610;SDS011;59459;51.172;6.682;2023-05-08T09:32:26;9.20;;;5.40;;
71610;SDS011;59459;51.172;6.682;2023-05-08T09:34:52;8.88;;;5.03;;
71610;SDS011;59459;51.172;6.682;2023-05-08T09:37:17;9.03;;;4.87;;
71610;SDS011;59459;51.172;6.682;2023-05-08T09:39:42;9.03;;;4.90;;
71610;SDS011;59459;51.172;6.682;2023-05-08T09:42:09;9.55;;;4.95;;
71610;SDS011;59459;51.172;6.682;2023-05-08T09:47:10;8.98;;;5.53;;
71610;SDS011;59459;51.172;6.682;2023-05-08T09:49:38;9.35;;;4.65;;
71610;SDS011;59459;51.172;6.682;2023-05-08T09:52:05;7.85;;;3.90;;
71610;SDS011;59459;51.172;6.682;2023-05-08T09:54:30;9.50;;;4.17;;
71610;SDS011;59459;51.172;6.682;2023-05-08T09:56:55;8.43;;;4.20;;
71610;SDS011;59459;51.172;6.682;2023-05-08T09:59:24;8.27;;;4.17;;
71610;SDS011;59459;51.172;6.682;2023-05-08T10:01:52;6.93;;;3.65;;
71610;SDS011;59459;51.172;6.682;2023-05-08T10:04:33;7.67;;;3.70;;
71610;SDS011;59459;51.172;6.682;2023-05-08T10:06:59;6.82;;;3.58;;
71610;SDS011;59459;51.172;6.682;2023-05-08T10:09:24;7.13;;;3.40;;
71610;SDS011;59459;51.172;6.682;2023-05-08T10:11:50;7.82;;;3.58;;
71610;SDS011;59459;51.172;6.682;2023-05-08T10:14:16;7.53;;;3.60;;
71610;SDS011;59459;51.172;6.682;2023-05-08T10:16:42;7.00;;;3.83;;
71610;SDS011;59459;51.172;6.682;2023-05-08T10:19:11;6.18;;;3.78;;
71610;SDS011;59459;51.172;6.682;2023-05-08T10:21:36;7.40;;;4.13;;
71610;SDS011;59459;51.172;6.682;2023-05-08T10:24:05;8.07;;;4.10;;
71610;SDS011;59459;51.172;6.682;2023-05-08T10:26:32;7.70;;;4.40;;
71610;SDS011;59459;51.172;6.682;2023-05-08T10:28:58;7.13;;;3.70;;
71610;SDS011;59459;51.172;6.682;2023-05-08T10:31:24;7.45;;;3.72;;
71610;SDS011;59459;51.172;6.682;2023-05-08T10:33:53;7.95;;;3.80;;
71610;SDS011;59459;51.172;6.682;2023-05-08T10:36:19;6.97;;;4.10;;
71610;SDS011;59459;51.172;6.682;2023-05-08T10:38:45;8.07;;;4.40;;
71610;SDS011;59459;51.172;6.682;2023-05-08T10:41:11;7.22;;;4.38;;
71610;SDS011;59459;51.172;6.682;2023-05-08T10:43:40;8.40;;;4.15;;
71610;SDS011;59459;51.172;6.682;2023-05-08T10:46:08;8.48;;;4.22;;
71610;SDS011;59459;51.172;6.682;2023-05-08T10:48:38;7.10;;;4.00;;
71610;SDS011;59459;51.172;6.682;2023-05-08T10:51:13;6.30;;;3.37;;
71610;SDS011;59459;51.172;6.682;2023-05-08T10:53:50;7.20;;;4.05;;
71610;SDS011;59459;51.172;6.682;2023-05-08T10:56:16;7.97;;;4.35;;
71610;SDS011;59459;51.172;6.682;2023-05-08T10:58:41;11.30;;;4.67;;
71610;SDS011;59459;51.172;6.682;2023-05-08T11:03:32;7.97;;;3.40;;
71610;SDS011;59459;51.172;6.682;2023-05-08T11:06:01;6.13;;;3.00;;
71610;SDS011;59459;51.172;6.682;2023-05-08T11:08:30;6.40;;;3.00;;
71610;SDS011;59459;51.172;6.682;2023-05-08T11:19:14;6.13;;;3.30;;
71610;SDS011;59459;51.172;6.682;2023-05-08T11:21:39;5.43;;;2.95;;
71610;SDS011;59459;51.172;6.682;2023-05-08T11:24:31;5.72;;;3.33;;
71610;SDS011;59459;51.172;6.682;2023-05-08T11:26:57;7.13;;;3.80;;
71610;SDS011;59459;51.172;6.682;2023-05-08T11:29:23;8.83;;;3.93;;
71610;SDS011;59459;51.172;6.682;2023-05-08T11:31:48;7.10;;;3.60;;
71610;SDS011;59459;51.172;6.682;2023-05-08T11:37:01;9.07;;;4.50;;
71610;SDS011;59459;51.172;6.682;2023-05-08T11:39:26;7.00;;;3.95;;
71610;SDS011;59459;51.172;6.682;2023-05-08T11:41:51;7.70;;;3.93;;
71610;SDS011;59459;51.172;6.682;2023-05-08T11:44:19;9.77;;;4.37;;
71610;SDS011;59459;51.172;6.682;2023-05-08T11:49:15;6.70;;;3.28;;
71610;SDS011;59459;51.172;6.682;2023-05-08T11:51:42;5.53;;;3.05;;
71610;SDS011;59459;51.172;6.682;2023-05-08T11:54:10;7.30;;;3.17;;
71610;SDS011;59459;51.172;6.682;2023-05-08T11:56:37;33.30;;;5.65;;
71610;SDS011;59459;51.172;6.682;2023-05-08T11:59:03;20.98;;;5.32;;
71610;SDS011;59459;51.172;6.682;2023-05-08T12:01:29;5.88;;;2.78;;
71610;SDS011;59459;51.172;6.682;2023-05-08T12:04:08;6.15;;;3.47;;
71610;SDS011;59459;51.172;6.682;2023-05-08T12:06:34;8.80;;;3.80;;
71610;SDS011;59459;51.172;6.682;2023-05-08T12:09:08;10.00;;;5.18;;
71610;SDS011;59459;51.172;6.682;2023-05-08T12:11:34;37.05;;;9.68;;
71610;SDS011;59459;51.172;6.682;2023-05-08T12:14:02;6.22;;;3.15;;
71610;SDS011;59459;51.172;6.682;2023-05-08T12:16:40;5.70;;;2.88;;
71610;SDS011;59459;51.172;6.682;2023-05-08T12:20:05;10.60;;;4.17;;
71610;SDS011;59459;51.172;6.682;2023-05-08T12:22:33;8.45;;;3.97;;
71610;SDS011;59459;51.172;6.682;2023-05-08T12:24:58;6.63;;;3.63;;
71610;SDS011;59459;51.172;6.682;2023-05-08T12:27:23;8.90;;;4.50;;
71610;SDS011;59459;51.172;6.682;2023-05-08T12:29:48;8.33;;;4.17;;
71610;SDS011;59459;51.172;6.682;2023-05-08T12:32:14;7.67;;;4.43;;
71610;SDS011;59459;51.172;6.682;2023-05-08T12:34:39;8.67;;;4.93;;
71610;SDS011;59459;51.172;6.682;2023-05-08T12:37:04;7.67;;;4.83;;
71610;SDS011;59459;51.172;6.682;2023-05-08T12:39:33;7.60;;;4.43;;
71610;SDS011;59459;51.172;6.682;2023-05-08T12:41:58;23.48;;;5.75;;
71610;SDS011;59459;51.172;6.682;2023-05-08T12:44:27;9.40;;;4.60;;
71610;SDS011;59459;51.172;6.682;2023-05-08T12:47:03;6.55;;;3.55;;
71610;SDS011;59459;51.172;6.682;2023-05-08T12:49:29;8.33;;;4.67;;
71610;SDS011;59459;51.172;6.682;2023-05-08T12:52:07;8.60;;;4.65;;
71610;SDS011;59459;51.172;6.682;2023-05-08T12:54:33;7.93;;;4.32;;
71610;SDS011;59459;51.172;6.682;2023-05-08T12:56:59;8.67;;;5.30;;
71610;SDS011;59459;51.172;6.682;2023-05-08T12:59:28;8.33;;;4.97;;
71610;SDS011;59459;51.172;6.682;2023-05-08T13:01:53;7.50;;;4.40;;
71610;SDS011;59459;51.172;6.682;2023-05-08T13:04:19;7.57;;;4.43;;
71610;SDS011;59459;51.172;6.682;2023-05-08T13:06:52;8.87;;;4.43;;
71610;SDS011;59459;51.172;6.682;2023-05-08T13:09:17;8.20;;;4.95;;
71610;SDS011;59459;51.172;6.682;2023-05-08T13:11:42;8.80;;;5.17;;
71610;SDS011;59459;51.172;6.682;2023-05-08T13:14:07;8.63;;;4.47;;
71610;SDS011;59459;51.172;6.682;2023-05-08T13:16:40;8.03;;;4.80;;
71610;SDS011;59459;51.172;6.682;2023-05-08T13:19:05;9.10;;;4.70;;
71610;SDS011;59459;51.172;6.682;2023-05-08T13:21:31;7.57;;;4.47;;
71610;SDS011;59459;51.172;6.682;2023-05-08T13:23:56;8.03;;;4.83;;
71610;SDS011;59459;51.172;6.682;2023-05-08T13:26:21;7.53;;;4.40;;
71610;SDS011;59459;51.172;6.682;2023-05-08T13:28:46;8.37;;;4.20;;
71610;SDS011;59459;51.172;6.682;2023-05-08T13:31:12;6.70;;;3.90;;
71610;SDS011;59459;51.172;6.682;2023-05-08T13:33:37;8.23;;;4.43;;
71610;SDS011;59459;51.172;6.682;2023-05-08T13:36:03;6.77;;;4.00;;
71610;SDS011;59459;51.172;6.682;2023-05-08T13:38:28;8.27;;;4.10;;
71610;SDS011;59459;51.172;6.682;2023-05-08T13:40:53;5.77;;;3.50;;
71610;SDS011;59459;51.172;6.682;2023-05-08T13:43:18;7.10;;;3.40;;
71610;SDS011;59459;51.172;6.682;2023-05-08T13:45:44;6.23;;;3.47;;
71610;SDS011;59459;51.172;6.682;2023-05-08T13:48:09;6.87;;;3.73;;
71610;SDS011;59459;51.172;6.682;2023-05-08T13:50:34;5.57;;;3.57;;
71610;SDS011;59459;51.172;6.682;2023-05-08T13:52:59;5.73;;;3.63;;
71610;SDS011;59459;51.172;6.682;2023-05-08T13:55:25;5.68;;;2.67;;
71610;SDS011;59459;51.172;6.682;2023-05-08T13:57:50;5.83;;;3.20;;
71610;SDS011;59459;51.172;6.682;2023-05-08T14:00:15;6.87;;;3.37;;
71610;SDS011;59459;51.172;6.682;2023-05-08T14:02:41;4.77;;;2.80;;
71610;SDS011;59459;51.172;6.682;2023-05-08T14:05:06;4.70;;;2.70;;
71610;SDS011;59459;51.172;6.682;2023-05-08T14:07:32;5.88;;;3.50;;
71610;SDS011;59459;51.172;6.682;2023-05-08T14:09:58;4.97;;;2.73;;
71610;SDS011;59459;51.172;6.682;2023-05-08T14:12:23;6.33;;;3.03;;
71610;SDS011;59459;51.172;6.682;2023-05-08T14:14:48;5.53;;;3.23;;
71610;SDS011;59459;51.172;6.682;2023-05-08T14:17:13;5.10;;;3.17;;
71610;SDS011;59459;51.172;6.682;2023-05-08T14:19:39;4.23;;;2.60;;
71610;SDS011;59459;51.172;6.682;2023-05-08T14:22:04;5.37;;;2.90;;
71610;SDS011;59459;51.172;6.682;2023-05-08T14:24:30;5.65;;;3.33;;
71610;SDS011;59459;51.172;6.682;2023-05-08T14:26:56;5.80;;;3.20;;
71610;SDS011;59459;51.172;6.682;2023-05-08T14:29:21;5.80;;;3.10;;
71610;SDS011;59459;51.172;6.682;2023-05-08T14:31:46;5.07;;;2.70;;
71610;SDS011;59459;51.172;6.682;2023-05-08T14:34:11;5.17;;;3.30;;
71610;SDS011;59459;51.172;6.682;2023-05-08T14:36:37;5.47;;;3.13;;
71610;SDS011;59459;51.172;6.682;2023-05-08T14:39:02;5.73;;;2.73;;
71610;SDS011;59459;51.172;6.682;2023-05-08T14:41:28;5.53;;;2.72;;
71610;SDS011;59459;51.172;6.682;2023-05-08T14:43:53;6.40;;;3.60;;
71610;SDS011;59459;51.172;6.682;2023-05-08T14:46:18;6.33;;;2.83;;
71610;SDS011;59459;51.172;6.682;2023-05-08T14:48:44;4.23;;;2.83;;
71610;SDS011;59459;51.172;6.682;2023-05-08T14:51:09;5.27;;;3.00;;
71610;SDS011;59459;51.172;6.682;2023-05-08T14:53:36;5.72;;;3.22;;
71610;SDS011;59459;51.172;6.682;2023-05-08T14:56:01;6.73;;;3.27;;
71610;SDS011;59459;51.172;6.682;2023-05-08T14:58:29;6.97;;;3.90;;
71610;SDS011;59459;51.172;6.682;2023-05-08T15:00:54;6.20;;;3.17;;
71610;SDS011;59459;51.172;6.682;2023-05-08T15:03:20;6.30;;;3.20;;
71610;SDS011;59459;51.172;6.682;2023-05-08T15:05:45;7.63;;;3.20;;
71610;SDS011;59459;51.172;6.682;2023-05-08T15:08:11;4.85;;;2.97;;
71610;SDS011;59459;51.172;6.682;2023-05-08T15:10:36;6.87;;;3.47;;
71610;SDS011;59459;51.172;6.682;2023-05-08T15:13:01;5.27;;;2.90;;
71610;SDS011;59459;51.172;6.682;2023-05-08T15:15:27;5.30;;;3.00;;
71610;SDS011;59459;51.172;6.682;2023-05-08T15:17:52;6.40;;;3.30;;
71610;SDS011;59459;51.172;6.682;2023-05-08T15:20:17;4.72;;;3.10;;
71610;SDS011;59459;51.172;6.682;2023-05-08T15:22:45;4.70;;;3.17;;
71610;SDS011;59459;51.172;6.682;2023-05-08T15:25:10;6.83;;;3.30;;
71610;SDS011;59459;51.172;6.682;2023-05-08T15:27:35;6.18;;;3.15;;
71610;SDS011;59459;51.172;6.682;2023-05-08T15:30:01;6.17;;;3.00;;
71610;SDS011;59459;51.172;6.682;2023-05-08T15:32:26;5.97;;;3.53;;
71610;SDS011;59459;51.172;6.682;2023-05-08T15:34:51;6.23;;;3.30;;